Time;durP1;ratioP1;P1;durP2;ratioP2;P2;SDS_P1;SDS_P2;PMS_P1;PMS_P2;Temp;Humidity;BMP_temperature;BMP_pressure;BME280_temperature;BME280_humidity;BME280_pressure;Samples;Min_cycle;Max_cycle;Signal;HPM_P1;HPM_P2
2022/09/18 00:02:13;;;;;;;1.42;0.40;;;9.40;99.90;;;;;;5055029;28;20045;-70
2022/09/18 00:04:39;;;;;;;1.42;0.47;;;9.50;99.90;;;;;;5054654;28;20036;-70
2022/09/18 00:07:06;;;;;;;1.83;0.38;;;9.40;99.90;;;;;;5053761;28;20504;-62
2022/09/18 00:09:31;;;;;;;3.22;0.30;;;9.40;99.90;;;;;;5054942;28;20052;-62
2022/09/18 00:11:58;;;;;;;1.23;0.30;;;9.40;99.90;;;;;;5054638;28;20080;-67
2022/09/18 00:14:25;;;;;;;5.03;0.90;;;9.50;99.90;;;;;;5054551;28;20496;-69
2022/09/18 00:16:51;;;;;;;0.90;0.35;;;9.70;99.90;;;;;;5054775;28;20523;-62
2022/09/18 00:19:17;;;;;;;2.25;0.40;;;9.70;99.90;;;;;;5054749;28;20040;-62
2022/09/18 00:21:46;;;;;;;5.75;0.63;;;9.70;99.90;;;;;;5054817;28;20033;-62
2022/09/18 00:24:12;;;;;;;8.73;0.70;;;9.80;99.90;;;;;;5054832;28;20041;-65
2022/09/18 00:26:39;;;;;;;2.20;1.20;;;9.70;99.90;;;;;;5054529;28;20132;-63
2022/09/18 00:29:05;;;;;;;1.50;0.68;;;9.70;99.90;;;;;;5054285;28;20047;-63
2022/09/18 00:31:33;;;;;;;3.55;0.65;;;9.60;99.90;;;;;;5054042;28;20111;-64
2022/09/18 00:34:01;;;;;;;3.15;0.77;;;9.60;99.90;;;;;;5054264;28;20056;-63
2022/09/18 00:36:28;;;;;;;2.97;0.63;;;9.70;99.90;;;;;;5054374;28;20041;-62
2022/09/18 00:38:55;;;;;;;3.88;0.52;;;9.60;99.90;;;;;;5054575;28;20404;-63
2022/09/18 00:41:24;;;;;;;3.92;0.50;;;9.60;99.90;;;;;;5054489;28;20107;-71
2022/09/18 00:43:58;;;;;;;3.22;0.57;;;9.80;99.90;;;;;;5054309;28;20040;-62
2022/09/18 00:46:35;;;;;;;2.30;0.55;;;9.60;99.90;;;;;;5054235;28;20121;-71
2022/09/18 00:49:07;;;;;;;3.72;0.32;;;9.70;99.90;;;;;;5054466;28;20044;-63
2022/09/18 00:51:34;;;;;;;2.65;0.45;;;9.70;99.90;;;;;;5054358;28;20047;-70
2022/09/18 00:54:17;;;;;;;1.33;0.50;;;9.60;99.90;;;;;;5054365;28;20040;-71
2022/09/18 00:56:44;;;;;;;2.78;0.45;;;9.70;99.90;;;;;;5054139;28;20199;-70
2022/09/18 00:59:13;;;;;;;1.75;0.50;;;9.70;99.90;;;;;;5054032;28;20170;-66
2022/09/18 01:01:39;;;;;;;1.75;0.57;;;9.80;99.90;;;;;;5054218;28;20447;-68
2022/09/18 01:04:10;;;;;;;2.50;0.60;;;9.70;99.90;;;;;;5053887;28;20052;-70
2022/09/18 01:06:39;;;;;;;1.70;0.60;;;9.60;99.90;;;;;;5052654;28;20444;-62
2022/09/18 01:09:23;;;;;;;5.10;0.63;;;9.60;99.90;;;;;;5054127;28;20044;-63
2022/09/18 01:12:01;;;;;;;2.97;0.70;;;9.60;99.90;;;;;;5054138;28;20040;-63
2022/09/18 01:14:35;;;;;;;5.25;0.45;;;9.60;99.90;;;;;;5054120;28;20139;-63
2022/09/18 01:17:19;;;;;;;13.02;1.45;;;9.60;99.90;;;;;;5054033;28;20037;-69
2022/09/18 01:20:12;;;;;;;1.20;0.30;;;9.60;99.90;;;;;;5053866;28;20033;-63
2022/09/18 01:22:56;;;;;;;4.75;0.45;;;9.60;99.90;;;;;;5052737;28;20037;-63
2022/09/18 01:25:40;;;;;;;1.35;0.43;;;9.60;99.90;;;;;;5053477;28;20132;-63
2022/09/18 01:28:36;;;;;;;3.60;0.47;;;9.60;99.90;;;;;;5053747;28;20045;-71
2022/09/18 01:31:10;;;;;;;5.22;0.98;;;9.50;99.90;;;;;;5053919;28;20041;-65
2022/09/18 01:34:04;;;;;;;3.85;0.63;;;9.40;99.90;;;;;;5053884;28;20040;-62
2022/09/18 01:36:35;;;;;;;0.50;0.30;;;9.50;99.90;;;;;;5053473;28;20369;-64
2022/09/18 01:39:04;;;;;;;6.25;0.57;;;9.50;99.90;;;;;;5053570;28;20128;-69
2022/09/18 01:41:31;;;;;;;1.85;0.43;;;9.40;99.90;;;;;;5053563;28;20037;-67
2022/09/18 01:44:06;;;;;;;1.02;0.52;;;9.30;99.90;;;;;;5053561;28;20519;-62
2022/09/18 01:46:36;;;;;;;2.22;0.50;;;9.30;99.90;;;;;;5053491;28;20528;-63
2022/09/18 01:49:06;;;;;;;3.17;0.40;;;9.20;99.90;;;;;;5052474;28;20037;-62
2022/09/18 01:51:42;;;;;;;1.95;0.80;;;9.30;99.90;;;;;;5040991;28;20037;-68
2022/09/18 01:54:15;;;;;;;5.55;0.68;;;9.30;99.90;;;;;;5031458;28;20354;-62
2022/09/18 01:56:50;;;;;;;1.98;0.50;;;9.40;99.90;;;;;;5032052;28;20408;-65
2022/09/18 01:59:23;;;;;;;1.33;0.30;;;9.50;99.90;;;;;;5033173;28;20129;-69
2022/09/18 02:01:52;;;;;;;3.63;0.50;;;9.50;99.90;;;;;;5033728;28;20036;-63
2022/09/18 02:04:25;;;;;;;3.05;0.50;;;9.50;99.90;;;;;;5033581;28;20045;-71
2022/09/18 02:06:56;;;;;;;6.32;0.43;;;9.50;99.90;;;;;;5033624;28;20050;-63
2022/09/18 02:09:22;;;;;;;1.38;0.43;;;9.40;99.90;;;;;;5056106;28;20048;-63
2022/09/18 02:11:53;;;;;;;1.75;0.40;;;9.50;99.90;;;;;;5073391;28;20036;-62
2022/09/18 02:14:25;;;;;;;2.47;0.60;;;9.50;99.90;;;;;;5073520;28;20043;-70
2022/09/18 02:16:56;;;;;;;0.88;0.30;;;9.60;99.90;;;;;;5073504;28;20469;-63
2022/09/18 02:19:33;;;;;;;1.05;0.60;;;9.50;99.90;;;;;;5073437;28;20052;-65
2022/09/18 02:22:02;;;;;;;3.60;0.30;;;9.40;99.90;;;;;;5054411;28;20040;-70
2022/09/18 02:24:32;;;;;;;2.30;0.35;;;9.30;99.90;;;;;;5052869;28;20044;-62
2022/09/18 02:27:00;;;;;;;3.03;0.50;;;9.20;99.90;;;;;;5052897;28;20087;-63
2022/09/18 02:29:30;;;;;;;0.65;0.25;;;9.00;99.90;;;;;;5052949;28;20543;-62
2022/09/18 02:31:58;;;;;;;2.38;1.10;;;9.00;99.90;;;;;;5053115;28;20040;-63
2022/09/18 02:34:25;;;;;;;1.45;0.50;;;8.90;99.90;;;;;;5055394;28;20557;-71
2022/09/18 02:37:15;;;;;;;2.50;0.85;;;8.80;99.90;;;;;;5056502;28;20190;-63
2022/09/18 02:40:09;;;;;;;1.42;0.40;;;8.70;99.90;;;;;;5057026;28;20033;-66
2022/09/18 02:42:59;;;;;;;4.60;0.40;;;8.60;99.90;;;;;;5056936;28;20052;-68
2022/09/18 02:45:47;;;;;;;1.65;0.70;;;8.70;99.90;;;;;;5056199;28;20095;-62
2022/09/18 02:48:15;;;;;;;1.38;0.40;;;8.60;99.90;;;;;;5056463;28;20045;-71
2022/09/18 02:51:08;;;;;;;1.10;0.47;;;8.60;99.90;;;;;;5056278;28;20048;-64
2022/09/18 02:53:39;;;;;;;0.77;0.50;;;8.60;99.90;;;;;;5056413;28;20420;-63
2022/09/18 02:56:20;;;;;;;2.33;0.30;;;8.70;99.90;;;;;;5056647;28;20116;-63
2022/09/18 02:59:07;;;;;;;3.85;0.52;;;8.60;99.90;;;;;;5056217;28;20040;-62
2022/09/18 03:01:33;;;;;;;0.98;0.20;;;8.60;99.90;;;;;;5056617;28;20041;-62
2022/09/18 03:04:04;;;;;;;1.83;0.60;;;8.60;99.90;;;;;;5056284;28;20155;-66
2022/09/18 03:06:30;;;;;;;3.90;0.35;;;8.50;99.90;;;;;;5056356;28;20044;-63
2022/09/18 03:08:56;;;;;;;1.02;0.40;;;8.50;99.90;;;;;;5056217;28;20439;-62
2022/09/18 03:11:22;;;;;;;3.55;0.40;;;8.50;99.90;;;;;;5056081;28;20041;-65
2022/09/18 03:13:48;;;;;;;2.45;0.52;;;8.50;99.90;;;;;;5056092;28;20033;-62
2022/09/18 03:16:14;;;;;;;1.27;0.30;;;8.50;99.90;;;;;;5055560;28;20041;-71
2022/09/18 03:18:39;;;;;;;4.90;0.47;;;8.40;99.90;;;;;;5055825;28;20041;-71
2022/09/18 03:21:06;;;;;;;1.83;0.43;;;8.30;99.90;;;;;;5056184;28;20128;-63
2022/09/18 03:23:31;;;;;;;1.30;0.40;;;8.10;99.90;;;;;;5055915;28;20028;-67
2022/09/18 03:25:57;;;;;;;0.52;0.20;;;8.00;99.90;;;;;;5055793;28;20091;-62
2022/09/18 03:28:23;;;;;;;2.25;0.50;;;7.90;99.90;;;;;;5055964;28;20037;-71
2022/09/18 03:30:49;;;;;;;1.98;0.43;;;7.90;99.90;;;;;;5055829;28;20056;-69
2022/09/18 03:33:15;;;;;;;0.70;0.28;;;7.80;99.90;;;;;;5055841;28;20041;-62
2022/09/18 03:35:44;;;;;;;0.13;0.13;;;7.70;99.90;;;;;;5055689;28;20558;-67
2022/09/18 03:38:10;;;;;;;4.68;0.65;;;7.70;99.90;;;;;;5055626;28;20033;-71
2022/09/18 03:40:36;;;;;;;2.75;0.32;;;7.70;99.90;;;;;;5055576;28;20381;-63
2022/09/18 03:43:01;;;;;;;1.98;0.40;;;7.70;99.90;;;;;;5055636;28;20037;-72
2022/09/18 03:45:27;;;;;;;3.22;0.52;;;7.70;99.90;;;;;;5054470;28;20055;-71
2022/09/18 03:47:53;;;;;;;2.90;0.57;;;7.80;99.90;;;;;;5055263;28;20041;-64
2022/09/18 03:50:19;;;;;;;3.17;0.50;;;7.70;99.90;;;;;;5055125;28;20123;-65
2022/09/18 03:52:46;;;;;;;0.50;0.32;;;7.70;99.90;;;;;;5055459;28;20633;-62
2022/09/18 03:55:12;;;;;;;2.72;0.43;;;7.70;99.90;;;;;;5055338;28;20044;-72
2022/09/18 03:57:38;;;;;;;1.17;0.52;;;7.60;99.90;;;;;;5055398;28;20120;-62
2022/09/18 04:00:05;;;;;;;6.28;0.93;;;7.60;99.90;;;;;;5055272;28;20064;-62
2022/09/18 04:02:30;;;;;;;2.08;0.60;;;7.60;99.90;;;;;;5055158;28;20128;-63
2022/09/18 04:04:56;;;;;;;1.75;0.52;;;7.60;99.90;;;;;;5055119;28;20064;-63
2022/09/18 04:07:22;;;;;;;1.73;0.40;;;7.60;99.90;;;;;;5055149;28;20049;-62
2022/09/18 04:09:48;;;;;;;2.13;0.35;;;7.50;99.90;;;;;;5054975;28;20036;-72
2022/09/18 04:12:14;;;;;;;2.45;0.32;;;7.50;99.90;;;;;;5054784;28;20083;-71
2022/09/18 04:14:39;;;;;;;3.03;0.40;;;7.50;99.90;;;;;;5054717;28;20389;-63
2022/09/18 04:17:05;;;;;;;0.47;0.20;;;7.60;99.90;;;;;;5054864;28;20427;-70
2022/09/18 04:19:31;;;;;;;1.73;0.30;;;7.60;99.90;;;;;;5054775;28;20488;-62
2022/09/18 04:21:57;;;;;;;1.13;0.47;;;7.70;99.90;;;;;;5054786;28;20032;-62
2022/09/18 04:24:22;;;;;;;3.65;0.68;;;7.70;99.90;;;;;;5054755;28;20033;-70
2022/09/18 04:26:48;;;;;;;2.28;0.60;;;7.60;99.90;;;;;;5054641;28;20126;-62
2022/09/18 04:29:14;;;;;;;2.05;0.60;;;7.60;99.90;;;;;;5054499;28;20032;-70
2022/09/18 04:31:40;;;;;;;2.30;0.52;;;7.60;99.90;;;;;;5054303;28;20121;-63
2022/09/18 04:34:06;;;;;;;6.03;0.52;;;7.50;99.90;;;;;;5054606;28;20067;-63
2022/09/18 04:36:32;;;;;;;3.72;0.60;;;7.50;99.90;;;;;;5054301;28;20049;-68
2022/09/18 04:38:57;;;;;;;2.58;0.45;;;7.60;99.90;;;;;;5054606;28;20568;-63
2022/09/18 04:41:24;;;;;;;0.75;0.30;;;7.50;99.90;;;;;;5054504;28;20091;-68
2022/09/18 04:43:50;;;;;;;1.23;0.40;;;7.50;99.90;;;;;;5054357;28;20043;-63
2022/09/18 04:46:16;;;;;;;1.27;0.50;;;7.50;99.90;;;;;;5054378;28;20507;-63
2022/09/18 04:48:46;;;;;;;2.47;0.80;;;7.50;99.90;;;;;;5049048;28;20029;-65
2022/09/18 04:51:13;;;;;;;11.48;2.00;;;7.50;99.90;;;;;;5033665;28;20049;-63
2022/09/18 04:53:39;;;;;;;4.47;0.70;;;7.50;99.90;;;;;;5032477;28;20037;-62
2022/09/18 04:56:05;;;;;;;3.03;0.32;;;7.50;99.90;;;;;;5032590;28;20053;-62
2022/09/18 04:58:31;;;;;;;5.20;0.55;;;7.50;99.90;;;;;;5032830;28;20045;-62
2022/09/18 05:00:56;;;;;;;2.00;0.75;;;7.50;99.90;;;;;;5030281;28;20118;-62
2022/09/18 05:03:22;;;;;;;2.25;0.80;;;7.40;99.90;;;;;;5031676;28;20424;-66
2022/09/18 05:05:49;;;;;;;1.60;0.35;;;7.50;99.90;;;;;;5031170;28;20053;-62
2022/09/18 05:08:15;;;;;;;2.58;0.50;;;7.40;99.90;;;;;;5032477;28;20116;-63
2022/09/18 05:10:41;;;;;;;1.52;0.63;;;7.40;99.90;;;;;;5033057;28;20048;-62
2022/09/18 05:13:07;;;;;;;0.95;0.35;;;7.40;99.90;;;;;;5032754;28;20138;-63
2022/09/18 05:15:34;;;;;;;3.58;0.30;;;7.40;99.90;;;;;;5033090;28;20132;-64
2022/09/18 05:18:02;;;;;;;2.65;0.43;;;7.50;99.90;;;;;;5033589;28;20140;-66
2022/09/18 05:20:29;;;;;;;2.58;0.47;;;7.40;99.90;;;;;;5033731;28;20075;-71
2022/09/18 05:22:55;;;;;;;3.25;0.70;;;7.50;99.90;;;;;;5034008;28;20500;-71
2022/09/18 05:25:22;;;;;;;2.22;0.55;;;7.40;99.90;;;;;;5033843;28;20073;-63
2022/09/18 05:28:02;;;;;;;2.17;0.90;;;7.40;99.90;;;;;;5033973;28;20496;-70
2022/09/18 05:30:29;;;;;;;2.78;0.40;;;7.40;99.90;;;;;;5033724;28;20064;-62
2022/09/18 05:32:57;;;;;;;1.15;0.40;;;7.40;99.90;;;;;;5032555;28;20110;-71
2022/09/18 05:35:24;;;;;;;3.08;0.80;;;7.50;99.90;;;;;;5033831;28;20135;-65
2022/09/18 05:37:51;;;;;;;3.50;0.50;;;7.40;99.90;;;;;;5032515;28;20041;-63
2022/09/18 05:40:24;;;;;;;3.70;0.43;;;7.50;99.90;;;;;;5033646;28;20049;-63
2022/09/18 05:42:54;;;;;;;1.73;0.50;;;7.50;99.90;;;;;;5033167;28;20481;-71
2022/09/18 05:45:20;;;;;;;5.38;0.60;;;7.60;99.90;;;;;;5033790;28;20128;-69
2022/09/18 05:48:01;;;;;;;1.13;0.60;;;7.50;99.90;;;;;;5034003;28;20442;-69
2022/09/18 05:50:28;;;;;;;;;;;7.50;99.90;;;;;;5034224;28;20396;-70
2022/09/18 05:52:58;;;;;;;3.47;0.30;;;7.60;99.90;;;;;;5038831;28;19909;-70
2022/09/18 05:55:24;;;;;;;;;;;7.70;99.90;;;;;;5052526;28;20051;-63
2022/09/18 05:57:55;;;;;;;1.73;0.32;;;7.90;99.90;;;;;;5045608;28;20003;-62
2022/09/18 06:00:22;;;;;;;1.02;0.30;;;7.90;99.90;;;;;;5031346;28;20046;-67
2022/09/18 06:02:56;;;;;;;3.60;0.50;;;7.90;99.90;;;;;;5031601;28;20041;-63
2022/09/18 06:05:23;;;;;;;3.80;0.40;;;7.90;99.90;;;;;;5033222;28;20559;-69
2022/09/18 06:07:50;;;;;;;2.28;0.45;;;8.00;99.90;;;;;;5032707;28;20124;-62
2022/09/18 06:10:17;;;;;;;0.38;0.20;;;8.10;99.90;;;;;;5037372;28;20120;-65
2022/09/18 06:12:43;;;;;;;5.45;0.73;;;8.10;99.90;;;;;;5037419;28;20064;-70
2022/09/18 06:15:09;;;;;;;6.93;0.55;;;;;;;;;;5037205;28;20052;-62
2022/09/18 06:17:36;;;;;;;4.20;0.63;;;8.50;99.90;;;;;;5037184;28;20045;-63
2022/09/18 06:20:02;;;;;;;1.85;0.28;;;8.70;99.90;;;;;;5037276;28;20041;-67
2022/09/18 06:22:28;;;;;;;0.80;0.32;;;9.30;99.90;;;;;;5037068;28;20048;-63
2022/09/18 06:24:54;;;;;;;3.80;0.38;;;9.20;99.90;;;;;;5037021;28;20045;-71
2022/09/18 06:27:19;;;;;;;2.13;0.40;;;9.40;99.90;;;;;;5037097;28;20042;-67
2022/09/18 06:29:45;;;;;;;0.63;0.30;;;9.90;99.90;;;;;;5037145;28;20037;-63
2022/09/18 06:32:11;;;;;;;0.68;0.28;;;10.20;99.90;;;;;;5036995;28;20040;-71
2022/09/18 06:34:36;;;;;;;5.75;0.75;;;10.40;99.90;;;;;;5037032;28;20041;-70
2022/09/18 06:37:03;;;;;;;2.10;0.30;;;10.70;99.90;;;;;;5036897;28;20049;-63
2022/09/18 06:39:28;;;;;;;2.42;0.63;;;11.10;99.90;;;;;;5035900;28;20052;-70
2022/09/18 06:41:54;;;;;;;1.70;0.43;;;11.30;99.90;;;;;;5036849;28;20037;-63
2022/09/18 06:44:20;;;;;;;1.95;0.47;;;11.60;99.90;;;;;;5036732;28;20083;-63
2022/09/18 06:46:46;;;;;;;2.13;0.30;;;11.80;99.90;;;;;;5036454;28;20509;-63
2022/09/18 06:49:12;;;;;;;1.30;0.30;;;11.80;99.90;;;;;;5036778;28;20041;-70
2022/09/18 06:51:39;;;;;;;9.32;0.45;;;11.80;99.90;;;;;;5036649;28;20052;-70
2022/09/18 06:54:05;;;;;;;1.48;0.50;;;11.80;99.90;;;;;;5036706;28;20045;-67
2022/09/18 06:56:31;;;;;;;0.50;0.32;;;12.10;99.90;;;;;;5036775;28;20099;-63
2022/09/18 06:58:56;;;;;;;2.95;0.30;;;12.40;99.90;;;;;;5036645;28;20033;-63
2022/09/18 07:01:22;;;;;;;0.50;0.20;;;12.50;99.90;;;;;;5036684;28;20037;-70
2022/09/18 07:03:49;;;;;;;2.78;0.63;;;12.70;99.90;;;;;;5036426;28;20555;-71
2022/09/18 07:06:15;;;;;;;4.28;0.60;;;12.90;99.90;;;;;;5036600;28;20195;-65
2022/09/18 07:08:41;;;;;;;3.20;0.77;;;13.30;99.90;;;;;;5036333;28;20034;-71
2022/09/18 07:11:06;;;;;;;0.88;0.40;;;13.20;99.90;;;;;;5036166;28;20040;-64
2022/09/18 07:13:33;;;;;;;2.10;0.40;;;13.20;99.90;;;;;;5036474;28;20037;-69
2022/09/18 07:15:59;;;;;;;2.45;0.28;;;13.40;99.90;;;;;;5036186;28;20128;-70
2022/09/18 07:18:25;;;;;;;0.98;0.32;;;13.90;99.90;;;;;;5036126;28;20041;-64
2022/09/18 07:20:52;;;;;;;2.20;0.40;;;13.70;99.90;;;;;;5036248;28;20471;-71
2022/09/18 07:23:18;;;;;;;3.75;0.73;;;13.50;99.90;;;;;;5036136;28;20033;-71
2022/09/18 07:25:45;;;;;;;1.88;0.43;;;13.90;99.90;;;;;;5036102;28;20045;-73
2022/09/18 07:28:12;;;;;;;1.98;0.40;;;14.20;99.90;;;;;;5040811;28;20033;-68
2022/09/18 07:30:38;;;;;;;1.92;0.40;;;14.50;99.90;;;;;;5055734;28;20041;-64
2022/09/18 07:33:06;;;;;;;1.70;0.57;;;14.80;99.90;;;;;;5055827;28;20571;-72
2022/09/18 07:35:33;;;;;;;3.08;0.73;;;13.80;99.90;;;;;;5055725;28;21066;-69
2022/09/18 07:37:59;;;;;;;0.93;0.30;;;14.60;99.90;;;;;;5055671;28;20037;-64
2022/09/18 07:40:26;;;;;;;1.65;0.30;;;14.70;99.90;;;;;;5055738;28;20041;-71
2022/09/18 07:43:03;;;;;;;1.80;0.63;;;14.20;99.90;;;;;;5055316;28;20036;-67
2022/09/18 07:45:29;;;;;;;1.70;0.50;;;14.70;99.90;;;;;;5054604;28;20047;-64
2022/09/18 07:47:55;;;;;;;1.95;0.50;;;15.00;99.90;;;;;;5054954;28;20056;-64
2022/09/18 07:50:21;;;;;;;3.13;0.50;;;15.30;99.90;;;;;;5050552;28;20037;-64
2022/09/18 07:52:51;;;;;;;1.00;0.35;;;14.30;99.80;;;;;;5031700;28;20041;-64
2022/09/18 07:55:19;;;;;;;5.13;0.60;;;14.70;99.90;;;;;;5031208;28;20034;-69
2022/09/18 07:58:06;;;;;;;5.10;0.55;;;15.20;99.90;;;;;;5033353;28;20040;-64
2022/09/18 08:00:35;;;;;;;0.77;0.32;;;15.40;99.90;;;;;;5033108;28;20053;-64
2022/09/18 08:03:02;;;;;;;1.40;0.60;;;15.10;99.90;;;;;;5033121;28;20064;-64
2022/09/18 08:05:28;;;;;;;4.32;0.80;;;15.20;99.90;;;;;;5032695;28;20099;-64
2022/09/18 08:07:53;;;;;;;1.70;0.40;;;15.40;99.90;;;;;;5033747;28;20037;-64
2022/09/18 08:10:19;;;;;;;4.65;0.82;;;14.90;99.90;;;;;;5032978;28;20370;-64
2022/09/18 08:12:45;;;;;;;3.30;0.55;;;15.40;99.90;;;;;;5033226;28;20109;-64
2022/09/18 08:15:11;;;;;;;0.98;0.47;;;15.70;99.90;;;;;;5033576;28;20122;-65
2022/09/18 08:17:44;;;;;;;1.80;0.50;;;15.80;99.90;;;;;;5033874;28;20046;-70
2022/09/18 08:20:11;;;;;;;5.18;0.60;;;15.80;99.90;;;;;;5032058;28;20083;-65
2022/09/18 08:22:40;;;;;;;2.58;0.43;;;16.00;99.90;;;;;;5046520;28;20045;-64
2022/09/18 08:25:07;;;;;;;4.10;0.60;;;16.10;99.90;;;;;;5053917;28;20040;-64
2022/09/18 08:27:37;;;;;;;3.40;0.70;;;15.80;99.40;;;;;;5052583;28;20037;-64
2022/09/18 08:30:05;;;;;;;3.45;0.70;;;16.00;99.90;;;;;;5051112;28;20040;-64
2022/09/18 08:32:32;;;;;;;4.00;1.58;;;16.20;99.90;;;;;;5050598;28;20123;-64
2022/09/18 08:34:59;;;;;;;1.55;0.50;;;16.60;99.90;;;;;;5051498;28;20037;-65
2022/09/18 08:37:26;;;;;;;3.08;0.63;;;16.70;99.60;;;;;;5052410;28;20500;-66
2022/09/18 08:39:51;;;;;;;4.63;0.50;;;16.70;99.40;;;;;;5053995;28;20119;-64
2022/09/18 08:42:36;;;;;;;4.53;0.60;;;;;;;;;;5052153;28;20116;-64
2022/09/18 08:45:26;;;;;;;4.68;0.40;;;17.10;98.90;;;;;;5052024;28;21077;-64
2022/09/18 08:47:57;;;;;;;3.35;0.60;;;17.50;98.70;;;;;;5054178;28;20056;-64
2022/09/18 08:50:31;;;;;;;1.02;0.50;;;17.50;98.60;;;;;;5051687;28;20117;-63
2022/09/18 08:53:21;;;;;;;1.85;0.60;;;17.50;99.20;;;;;;5052001;28;20163;-63
2022/09/18 08:55:49;;;;;;;3.22;0.50;;;17.30;97.90;;;;;;5050524;28;20496;-63
2022/09/18 08:58:21;;;;;;;2.83;0.43;;;16.30;97.60;;;;;;5050119;28;20052;-68
2022/09/18 09:00:51;;;;;;;1.25;0.30;;;16.80;97.80;;;;;;5051492;28;20504;-63
2022/09/18 09:03:48;;;;;;;1.02;0.55;;;17.00;97.70;;;;;;5050051;28;20037;-64
2022/09/18 09:06:42;;;;;;;0.65;0.25;;;17.30;98.40;;;;;;5049756;28;20045;-63
2022/09/18 09:09:37;;;;;;;2.00;0.30;;;16.60;94.80;;;;;;5048511;28;20500;-63
2022/09/18 09:12:19;;;;;;;1.33;0.40;;;17.40;94.90;;;;;;5050537;28;20033;-66
2022/09/18 09:14:57;;;;;;;2.20;0.50;;;17.10;93.90;;;;;;5051596;28;20071;-65
2022/09/18 09:17:38;;;;;;;5.78;0.80;;;17.10;93.90;;;;;;5050314;28;20086;-65
2022/09/18 09:20:17;;;;;;;5.85;0.70;;;16.90;93.00;;;;;;5050572;28;20033;-67
2022/09/18 09:22:50;;;;;;;5.50;1.30;;;16.80;93.20;;;;;;5049933;28;20039;-66
2022/09/18 09:25:19;;;;;;;3.50;0.57;;;17.00;92.50;;;;;;5049565;28;20048;-66
2022/09/18 09:28:01;;;;;;;3.47;0.70;;;17.00;92.90;;;;;;5051843;28;20507;-65
2022/09/18 09:30:31;;;;;;;5.28;0.50;;;17.00;93.00;;;;;;5050307;28;20087;-65
2022/09/18 09:33:17;;;;;;;0.98;0.50;;;16.90;93.20;;;;;;5049491;28;20477;-64
2022/09/18 09:35:58;;;;;;;1.23;0.50;;;17.10;93.80;;;;;;5051225;28;20412;-65
2022/09/18 09:38:42;;;;;;;0.35;0.22;;;16.70;92.60;;;;;;5051650;28;20569;-64
2022/09/18 09:41:19;;;;;;;2.75;0.50;;;16.80;92.60;;;;;;5050434;28;20063;-65
2022/09/18 09:44:07;;;;;;;4.10;0.50;;;16.00;93.90;;;;;;5051082;28;20043;-66
2022/09/18 09:47:03;;;;;;;2.88;0.38;;;16.70;94.30;;;;;;5033748;28;20141;-65
2022/09/18 09:49:37;;;;;;;2.83;0.50;;;16.40;93.40;;;;;;5053787;28;20041;-65
2022/09/18 09:52:24;;;;;;;3.13;0.40;;;16.40;93.40;;;;;;5054179;28;20053;-65
2022/09/18 09:54:58;;;;;;;2.80;0.25;;;16.40;92.90;;;;;;5051400;28;20033;-65
2022/09/18 09:57:47;;;;;;;1.98;0.30;;;16.90;92.50;;;;;;5055509;28;20040;-64
2022/09/18 10:00:16;;;;;;;4.10;0.88;;;16.50;92.90;;;;;;5054813;28;20123;-64
2022/09/18 10:02:57;;;;;;;4.33;0.30;;;16.60;93.00;;;;;;5054472;28;20040;-64
2022/09/18 10:05:27;;;;;;;2.47;0.40;;;16.70;92.30;;;;;;5055255;28;20108;-64
2022/09/18 10:08:00;;;;;;;0.70;0.28;;;16.10;92.20;;;;;;5056235;28;20040;-64
2022/09/18 10:10:40;;;;;;;0.63;0.40;;;16.10;91.50;;;;;;5056707;28;20098;-64
2022/09/18 10:13:14;;;;;;;0.52;0.20;;;16.90;92.20;;;;;;5054845;28;20618;-64
2022/09/18 10:15:40;;;;;;;0.40;0.30;;;17.00;91.50;;;;;;5055435;28;20041;-64
2022/09/18 10:18:15;;;;;;;0.65;0.30;;;16.90;91.70;;;;;;5055182;28;20178;-65
2022/09/18 10:20:43;;;;;;;2.80;0.47;;;16.30;91.50;;;;;;5054665;28;20392;-65
2022/09/18 10:23:21;;;;;;;0.98;0.30;;;16.90;92.00;;;;;;5053943;28;20032;-65
2022/09/18 10:25:56;;;;;;;2.10;0.50;;;16.70;91.80;;;;;;5055100;28;20110;-64
2022/09/18 10:28:24;;;;;;;2.08;0.50;;;16.60;91.60;;;;;;5054959;28;20033;-65
2022/09/18 10:31:01;;;;;;;4.00;0.35;;;15.90;92.00;;;;;;5054772;28;20128;-64
2022/09/18 10:33:39;;;;;;;1.00;0.20;;;16.60;92.00;;;;;;5055594;28;20063;-64
2022/09/18 10:36:27;;;;;;;0.75;0.28;;;16.40;91.20;;;;;;5053301;28;20094;-65
2022/09/18 10:38:53;;;;;;;2.83;0.68;;;16.30;91.10;;;;;;5053266;28;20036;-64
2022/09/18 10:41:25;;;;;;;2.75;0.38;;;16.90;91.50;;;;;;5052133;28;20041;-64
2022/09/18 10:44:13;;;;;;;1.00;0.30;;;17.30;90.90;;;;;;5054227;28;20037;-65
2022/09/18 10:47:09;;;;;;;3.97;0.57;;;17.80;93.30;;;;;;5052773;28;20049;-64
2022/09/18 10:49:49;;;;;;;1.25;0.40;;;17.10;91.10;;;;;;5053602;28;20043;-65
2022/09/18 10:52:30;;;;;;;2.13;0.40;;;16.80;90.80;;;;;;5052521;28;20572;-65
2022/09/18 10:55:01;;;;;;;1.00;0.30;;;17.10;90.70;;;;;;5052571;28;20302;-65
2022/09/18 10:57:32;;;;;;;1.85;0.25;;;17.40;90.80;;;;;;5052733;28;20041;-66
2022/09/18 10:59:58;;;;;;;2.90;0.38;;;17.80;91.90;;;;;;5052369;28;20511;-67
2022/09/18 11:02:28;;;;;;;4.30;0.30;;;17.80;90.60;;;;;;5052578;28;20047;-67
2022/09/18 11:04:54;;;;;;;2.25;0.57;;;17.90;91.60;;;;;;5053083;28;20547;-68
2022/09/18 11:07:24;;;;;;;2.53;0.43;;;17.40;90.70;;;;;;5052154;28;20483;-66
2022/09/18 11:09:50;;;;;;;2.25;0.50;;;17.00;90.90;;;;;;5052796;28;20037;-67
2022/09/18 11:12:26;;;;;;;1.33;0.47;;;17.50;92.40;;;;;;5053299;28;20519;-67
2022/09/18 11:15:06;;;;;;;0.63;0.32;;;17.30;91.20;;;;;;5054376;28;20040;-69
2022/09/18 11:17:40;;;;;;;0.93;0.40;;;17.60;91.90;;;;;;5052519;28;20048;-68
2022/09/18 11:20:06;;;;;;;0.65;0.30;;;18.00;92.20;;;;;;5052284;28;20049;-68
2022/09/18 11:22:40;;;;;;;0.73;0.47;;;18.10;90.90;;;;;;5050946;28;20036;-65
2022/09/18 11:25:19;;;;;;;1.33;0.28;;;17.50;91.10;;;;;;5051697;28;20049;-65
2022/09/18 11:27:51;;;;;;;1.65;0.43;;;17.20;91.30;;;;;;5054626;28;20041;-65
2022/09/18 11:30:24;;;;;;;2.83;0.57;;;17.70;92.00;;;;;;5059520;28;20090;-66
2022/09/18 11:32:57;;;;;;;11.40;1.15;;;18.00;91.70;;;;;;5059537;28;20032;-66
2022/09/18 11:35:27;;;;;;;4.55;0.50;;;17.30;91.70;;;;;;5009902;28;1309171;-65
2022/09/18 11:37:56;;;;;;;1.38;0.50;;;17.20;91.40;;;;;;5040314;28;20047;-67
2022/09/18 11:40:31;;;;;;;0.75;0.20;;;16.80;91.80;;;;;;5067631;28;20037;-68
2022/09/18 11:43:01;;;;;;;2.40;0.40;;;17.00;91.50;;;;;;5063869;28;20024;-66
2022/09/18 11:46:12;;;;;;;1.15;0.20;;;17.00;91.40;;;;;;5056258;28;20080;-67
2022/09/18 11:49:16;;;;;;;1.38;0.20;;;17.20;92.10;;;;;;5048563;28;20041;-65
2022/09/18 11:51:55;;;;;;;3.88;0.60;;;17.20;92.20;;;;;;5051241;28;20810;-68
2022/09/18 11:54:40;;;;;;;0.68;0.22;;;17.60;91.60;;;;;;5051884;28;20400;-67
2022/09/18 11:57:16;;;;;;;2.17;0.40;;;17.50;91.30;;;;;;5052041;28;20036;-67
2022/09/18 11:59:53;;;;;;;0.90;0.40;;;17.10;91.00;;;;;;5051261;28;20401;-68
2022/09/18 12:02:37;;;;;;;2.08;0.52;;;17.20;91.80;;;;;;5050072;28;20094;-65
2022/09/18 12:05:26;;;;;;;2.97;0.70;;;17.60;93.10;;;;;;5051380;28;20033;-68
2022/09/18 12:08:13;;;;;;;1.63;0.57;;;17.60;91.70;;;;;;5028984;28;20048;-69
2022/09/18 12:10:51;;;;;;;2.08;0.35;;;17.50;92.30;;;;;;5051404;28;20032;-68
2022/09/18 12:14:00;;;;;;;3.10;0.32;;;17.00;91.70;;;;;;5050611;28;20587;-68
2022/09/18 12:16:57;;;;;;;0.90;0.40;;;17.30;92.30;;;;;;5051430;28;20041;-68
2022/09/18 12:19:41;;;;;;;2.08;0.47;;;17.30;91.50;;;;;;5051919;28;20544;-68
2022/09/18 12:22:16;;;;;;;3.88;0.40;;;17.30;91.70;;;;;;5051957;28;20436;-68
2022/09/18 12:24:42;;;;;;;0.22;0.20;;;17.30;91.70;;;;;;5054065;28;20507;-69
2022/09/18 12:27:26;;;;;;;2.28;0.30;;;17.20;91.90;;;;;;5051872;28;20120;-68
2022/09/18 12:30:10;;;;;;;2.58;0.52;;;17.40;92.70;;;;;;5052776;28;20033;-68
2022/09/18 12:32:47;;;;;;;1.00;0.43;;;17.40;91.80;;;;;;5051856;28;20037;-65
2022/09/18 12:35:19;;;;;;;1.60;0.30;;;17.60;91.00;;;;;;5054387;28;20048;-68
2022/09/18 12:37:57;;;;;;;0.63;0.30;;;17.60;91.80;;;;;;5052971;28;20044;-67
2022/09/18 12:40:44;;;;;;;1.13;0.40;;;17.40;91.40;;;;;;5051952;28;20032;-67
2022/09/18 12:43:39;;;;;;;0.47;0.47;;;17.40;91.70;;;;;;5053254;28;20044;-64
2022/09/18 12:46:25;;;;;;;2.65;0.43;;;17.60;91.20;;;;;;5049771;28;20057;-66
2022/09/18 12:49:14;;;;;;;2.50;0.60;;;17.70;92.10;;;;;;5032105;28;20128;-67
2022/09/18 12:51:47;;;;;;;2.47;0.55;;;17.40;91.10;;;;;;5031908;28;20041;-67
2022/09/18 12:54:35;;;;;;;0.63;0.30;;;17.70;91.70;;;;;;5047051;28;20038;-67
2022/09/18 12:57:26;;;;;;;1.75;0.47;;;17.60;91.80;;;;;;5031411;28;20550;-67
2022/09/18 12:59:57;;;;;;;;;;;17.50;91.10;;;;;;5032498;28;20144;-67
2022/09/18 13:02:29;;;;;;;;;;;17.80;94.20;;;;;;5033060;28;19960;-67
2022/09/18 13:05:12;;;;;;;2.63;0.55;;;17.80;91.60;;;;;;5046461;28;19915;-67
2022/09/18 13:07:56;;;;;;;1.30;0.40;;;17.90;91.40;;;;;;5052161;28;20056;-67
2022/09/18 13:10:30;;;;;;;0.28;0.20;;;17.80;91.40;;;;;;5050958;28;20049;-67
2022/09/18 13:13:19;;;;;;;3.42;0.35;;;17.50;91.20;;;;;;5052433;28;20124;-67
2022/09/18 13:16:07;;;;;;;1.10;0.47;;;17.50;91.30;;;;;;5053337;28;20365;-66
2022/09/18 13:18:51;;;;;;;1.08;0.30;;;17.70;92.60;;;;;;5051772;28;20040;-67
2022/09/18 13:21:41;;;;;;;2.28;0.40;;;17.60;91.60;;;;;;5052167;28;20043;-67